Portada
METAR-TAF:

METAR-TAF

Aeroports :

Emporia-Greensville Regional Airport

Emporia, Virgínia, Estats Units d'Amèrica

latitud: 36-41-13N, longitud: 077-28-58W, altitud: 39 m

Observació

L'informe es va fer fa 15 minuts, a les 12:35 UTC
Vent 4 kt del Sud/Sud-Oest
Temperatura 6°C
Humitat 100%
Pressió 1012 hPa
Visibilitat: 11.3 km
Cel cobert a una alçada de 500 ft

METAR: KEMV 191235Z AUTO 20004KT 7SM OVC005 06/06 A2988 RMK AO2 T00560055

Hora: 07:50 (12:50 UTC)


TAF: manca

Observacions i pronòstics meteorològics de més de 4000 aeroports (METAR i TAF).

Les estacions disponibles són els punts grocs i vermells al mapa.

Posi el ratolí al punt desitjat per veure el nom de l'estació.

Feu clic per veure les observacions i els pronòstics meteorològics.

Per canviar el mapa: feu clic els botons verds amb una creu de color negre per apropar; al botó verd amb un guió per allunyar la imatge; o en les fletxes verdes per a mapes adjacents.


METAR-TAF: